Manavgat, Turkey
Current Conditions -  °F | °C
As of 3:20 PM on Thursday 23 Oct 2014 (Local Time) from LTAI Reporting Station
Broken Clouds Broken Clouds  
Wind Chill: 72°   Ceiling: 3000
Heat Index: 72°   Visibility: 6mi
Dew Point: 61°   Wind: 7mph
Humidity: 69%   Direction: 130°SE
Pressure: 29.91"   Gusts: NA
Location:  36.79°N, 31.46°E
Report Text: LTAI 231220Z 13006KT 080V170 9999 FEW015CB BKN030 22/16 Q1013 NOSIG
Loading
Personal Weather Stations






























Interactive Weather Map
Tropical Storm Tracking
New forecast layout! Learn more

10-Day Weather Forecast

Advertisements
Track Severe Weather on mobile